Time;durP1;ratioP1;P1;durP2;ratioP2;P2;SDS_P1;SDS_P2;PMS_P1;PMS_P2;Temp;Humidity;BMP_temperature;BMP_pressure;BME280_temperature;BME280_humidity;BME280_pressure;Samples;Min_cycle;Max_cycle;Signal;HPM_P1;HPM_P2
2022/04/10 00:00:06;;;;;;;9.20;7.97;;;;;21.00;100604.00;;;;2081259;28;20217;-46
2022/04/10 00:01:06;;;;;;;9.30;7.97;;;;;21.00;100599.00;;;;2081083;28;20213;-46
2022/04/10 00:02:07;;;;;;;10.10;7.93;;;;;21.00;100606.00;;;;2080341;28;20240;-45
2022/04/10 00:03:07;;;;;;;10.20;7.77;;;;;21.00;100604.00;;;;2080302;28;20287;-46
2022/04/10 00:04:07;;;;;;;7.70;6.90;;;;;21.00;100607.00;;;;2088890;28;20219;-47
2022/04/10 00:05:08;;;;;;;10.00;7.40;;;;;21.00;100608.00;;;;2086254;28;20713;-46
2022/04/10 00:06:09;;;;;;;9.40;7.32;;;;;21.00;100611.00;;;;2079772;28;20710;-45
2022/04/10 00:07:11;;;;;;;10.40;7.30;;;;;21.00;100613.00;;;;2080490;28;20264;-46
2022/04/10 00:08:11;;;;;;;9.68;6.68;;;;;21.00;100611.00;;;;2085509;28;20267;-45
2022/04/10 00:09:13;;;;;;;9.30;7.47;;;;;21.00;100614.00;;;;2086495;28;20233;-46
2022/04/10 00:10:14;;;;;;;9.60;7.30;;;;;21.00;100613.00;;;;2087541;28;20209;-46
2022/04/10 00:11:14;;;;;;;10.10;7.00;;;;;21.00;100590.00;;;;2089036;28;20236;-46
2022/04/10 00:12:14;;;;;;;10.10;6.60;;;;;21.00;100617.00;;;;2083461;28;20213;-46
2022/04/10 00:13:15;;;;;;;14.07;9.27;;;;;20.90;100621.00;;;;2082088;28;20217;-46
2022/04/10 00:14:15;;;;;;;10.70;8.90;;;;;20.70;100615.00;;;;2087732;28;20213;-46
2022/04/10 00:15:16;;;;;;;11.30;9.00;;;;;20.70;100615.00;;;;2088319;28;20209;-46
2022/04/10 00:16:16;;;;;;;10.40;7.60;;;;;20.80;100616.00;;;;2086059;28;20209;-47
2022/04/10 00:17:16;;;;;;;10.70;7.80;;;;;20.80;100621.00;;;;2081759;28;20221;-46
2022/04/10 00:18:17;;;;;;;11.70;8.10;;;;;20.80;100619.00;;;;2081654;28;20217;-47
2022/04/10 00:19:17;;;;;;;8.93;7.30;;;;;20.90;100617.00;;;;2079506;28;20213;-46
2022/04/10 00:20:18;;;;;;;8.00;6.57;;;;;20.90;100624.00;;;;2079726;28;20216;-47
2022/04/10 00:21:18;;;;;;;11.33;6.50;;;;;20.90;100629.00;;;;2079447;28;20210;-47
2022/04/10 00:22:18;;;;;;;8.70;6.50;;;;;21.00;100616.00;;;;2079646;28;20244;-47
2022/04/10 00:23:19;;;;;;;13.63;7.70;;;;;20.90;100626.00;;;;2079715;28;20275;-47
2022/04/10 00:24:19;;;;;;;9.37;6.53;;;;;20.90;100625.00;;;;2079182;28;20214;-47
2022/04/10 00:25:20;;;;;;;10.20;6.20;;;;;21.00;100625.00;;;;2078554;28;20214;-47
2022/04/10 00:26:20;;;;;;;9.23;6.50;;;;;21.00;100629.00;;;;2079295;28;20221;-47
2022/04/10 00:27:21;;;;;;;8.63;6.20;;;;;21.00;100621.00;;;;2078937;28;20694;-46
2022/04/10 00:28:21;;;;;;;7.50;5.80;;;;;21.00;100621.00;;;;2079006;28;20233;-47
2022/04/10 00:29:22;;;;;;;10.10;5.73;;;;;21.00;100622.00;;;;2079377;28;20484;-47
2022/04/10 00:30:22;;;;;;;9.57;6.27;;;;;21.00;100626.00;;;;2081558;28;20206;-47
2022/04/10 00:31:22;;;;;;;7.73;5.73;;;;;20.90;100624.00;;;;2087531;28;20295;-47
2022/04/10 00:32:27;;;;;;;6.97;5.57;;;;;20.90;100630.00;;;;2087688;28;20205;-47
2022/04/10 00:33:27;;;;;;;7.72;5.40;;;;;20.90;100631.00;;;;2077153;28;20216;-46
2022/04/10 00:34:28;;;;;;;7.97;5.40;;;;;20.90;100629.00;;;;2086556;28;20213;-47
2022/04/10 00:35:28;;;;;;;6.40;5.27;;;;;20.90;100627.00;;;;2082258;28;20205;-47
2022/04/10 00:36:28;;;;;;;8.77;5.63;;;;;20.90;100629.00;;;;2078647;28;20214;-47
2022/04/10 00:37:29;;;;;;;5.73;4.87;;;;;20.90;100622.00;;;;2078398;28;20206;-46
2022/04/10 00:38:29;;;;;;;6.43;5.30;;;;;20.90;100620.00;;;;2078744;28;20581;-46
2022/04/10 00:39:29;;;;;;;7.53;4.90;;;;;20.90;100627.00;;;;2081896;28;20208;-47
2022/04/10 00:40:30;;;;;;;7.37;4.77;;;;;20.90;100621.00;;;;2087009;28;20216;-47
2022/04/10 00:41:30;;;;;;;7.83;4.40;;;;;20.90;100624.00;;;;2086084;28;20209;-47
2022/04/10 00:42:35;;;;;;;6.67;4.73;;;;;20.90;100626.00;;;;2085951;28;20236;-47
2022/04/10 00:43:38;;;;;;;6.25;4.95;;;;;20.90;100625.00;;;;2086851;28;20255;-47
2022/04/10 00:44:38;;;;;;;7.40;5.00;;;;;20.90;100621.00;;;;2086814;28;20208;-47
2022/04/10 00:45:39;;;;;;;8.10;5.27;;;;;20.90;100625.00;;;;2086368;28;20228;-48
2022/04/10 00:46:39;;;;;;;5.93;5.03;;;;;20.90;100632.00;;;;2086823;28;20220;-46
2022/04/10 00:47:40;;;;;;;5.90;4.30;;;;;20.90;100625.00;;;;2086058;28;20239;-46
2022/04/10 00:48:40;;;;;;;7.30;4.57;;;;;20.80;100625.00;;;;2086322;28;20788;-47
2022/04/10 00:49:40;;;;;;;6.80;4.50;;;;;20.90;100635.00;;;;2079122;28;20209;-45
2022/04/10 00:51:40;;;;;;;7.40;4.93;;;;;20.90;100625.00;;;;2085701;28;20209;-45
2022/04/10 00:52:01;;;;;;;7.28;4.30;;;;;20.90;100627.00;;;;2086967;28;20236;-47
2022/04/10 00:53:01;;;;;;;5.53;4.90;;;;;20.90;100628.00;;;;2086447;28;20224;-46
2022/04/10 00:54:01;;;;;;;7.63;5.00;;;;;20.90;100632.00;;;;2086740;28;20217;-46
2022/04/10 00:55:02;;;;;;;6.67;4.00;;;;;20.90;100631.00;;;;2078556;28;20225;-48
2022/04/10 00:56:02;;;;;;;7.50;4.27;;;;;20.90;100621.00;;;;2071827;28;20229;-47
2022/04/10 00:57:03;;;;;;;5.90;4.20;;;;;20.90;100624.00;;;;2078422;28;20229;-47
2022/04/10 00:58:03;;;;;;;6.93;4.80;;;;;20.90;100632.00;;;;2078208;28;20210;-47
2022/04/10 00:59:04;;;;;;;5.43;4.17;;;;;20.80;100632.00;;;;2078539;28;20220;-46
2022/04/10 01:00:06;;;;;;;5.10;4.30;;;;;20.80;100626.00;;;;2087026;28;20288;-46
2022/04/10 01:01:07;;;;;;;5.97;3.75;;;;;20.80;100630.00;;;;2086976;28;20242;-47
2022/04/10 01:02:07;;;;;;;4.73;3.73;;;;;20.80;100633.00;;;;2078871;28;20206;-47
2022/04/10 01:03:08;;;;;;;4.60;3.90;;;;;20.80;100641.00;;;;2079349;28;20210;-47
2022/04/10 01:04:08;;;;;;;4.53;3.50;;;;;20.80;100636.00;;;;2078392;28;20217;-46
2022/04/10 01:05:08;;;;;;;5.33;4.40;;;;;20.80;100634.00;;;;2079092;28;20244;-47
2022/04/10 01:06:09;;;;;;;5.67;4.27;;;;;20.80;100627.00;;;;2082576;28;20209;-47
2022/04/10 01:07:13;;;;;;;4.17;3.50;;;;;20.80;100632.00;;;;2086241;28;20208;-47
2022/04/10 01:08:14;;;;;;;5.43;4.05;;;;;20.80;100638.00;;;;2086931;28;20259;-47
2022/04/10 01:09:15;;;;;;;5.65;3.75;;;;;20.80;100643.00;;;;2079140;28;20221;-46
2022/04/10 01:10:15;;;;;;;4.57;3.70;;;;;20.80;100642.00;;;;2086477;28;20205;-46
2022/04/10 01:11:15;;;;;;;7.47;3.73;;;;;20.80;100636.00;;;;2087646;28;20287;-47
2022/04/10 01:12:16;;;;;;;4.10;3.60;;;;;20.80;100637.00;;;;2080303;28;20216;-47
2022/04/10 01:13:16;;;;;;;5.53;3.43;;;;;20.80;100647.00;;;;2077785;28;20244;-47
2022/04/10 01:14:16;;;;;;;5.73;3.70;;;;;20.80;100643.00;;;;2078027;28;20244;-47
2022/04/10 01:15:17;;;;;;;4.00;3.20;;;;;20.80;100637.00;;;;2071557;28;20264;-46
2022/04/10 01:16:17;;;;;;;5.00;4.00;;;;;20.80;100643.00;;;;2075640;28;20694;-47
2022/04/10 01:17:18;;;;;;;4.53;3.23;;;;;20.80;100635.00;;;;2077078;28;20781;-46
2022/04/10 01:18:20;;;;;;;4.68;3.85;;;;;20.70;100636.00;;;;2086551;28;20216;-47
2022/04/10 01:19:20;;;;;;;5.57;3.67;;;;;20.80;100636.00;;;;2087729;28;20219;-47
2022/04/10 01:20:20;;;;;;;5.53;3.70;;;;;20.80;100639.00;;;;2081407;28;20217;-46
2022/04/10 01:21:23;;;;;;;4.63;3.43;;;;;20.70;100642.00;;;;2078579;28;20225;-46
2022/04/10 01:22:26;;;;;;;4.97;3.65;;;;;20.70;100644.00;;;;2078341;28;20220;-46
2022/04/10 01:23:27;;;;;;;5.70;3.70;;;;;20.70;100638.00;;;;2076275;28;20239;-47
2022/04/10 01:24:27;;;;;;;5.80;3.60;;;;;20.70;100641.00;;;;2070077;28;20214;-46
2022/04/10 01:25:28;;;;;;;5.57;3.80;;;;;20.70;100639.00;;;;2077960;28;20211;-46
2022/04/10 01:26:28;;;;;;;3.77;3.17;;;;;20.80;100644.00;;;;2078206;28;20216;-47
2022/04/10 01:27:28;;;;;;;5.00;3.73;;;;;20.70;100641.00;;;;2087170;28;20982;-47
2022/04/10 01:28:29;;;;;;;3.43;2.93;;;;;20.70;100640.00;;;;2087198;28;20685;-47
2022/04/10 01:29:29;;;;;;;4.60;3.00;;;;;20.70;100644.00;;;;2087525;28;20209;-47
2022/04/10 01:30:29;;;;;;;3.63;3.00;;;;;20.70;100646.00;;;;2087592;28;20213;-46
2022/04/10 01:31:31;;;;;;;6.43;4.00;;;;;20.70;100637.00;;;;2087669;28;20218;-46
2022/04/10 01:32:31;;;;;;;4.30;3.17;;;;;20.70;100644.00;;;;2088749;28;20240;-47
2022/04/10 01:33:31;;;;;;;6.23;3.67;;;;;20.70;100640.00;;;;2089327;28;20683;-46
2022/04/10 01:34:32;;;;;;;4.77;3.10;;;;;20.70;100644.00;;;;2084059;28;20221;-46
2022/04/10 01:35:32;;;;;;;4.40;3.20;;;;;20.70;100642.00;;;;2076392;28;20232;-47
2022/04/10 01:36:33;;;;;;;4.90;3.47;;;;;20.70;100646.00;;;;2080316;28;20259;-46
2022/04/10 01:37:36;;;;;;;4.27;2.73;;;;;20.70;100650.00;;;;2085431;28;20217;-47
2022/04/10 01:38:37;;;;;;;4.20;3.00;;;;;20.70;100647.00;;;;2081441;28;20251;-47
2022/04/10 01:39:37;;;;;;;4.30;3.00;;;;;20.70;100645.00;;;;2072270;28;20206;-47
2022/04/10 01:40:38;;;;;;;5.00;3.60;;;;;20.70;100642.00;;;;2080242;28;20232;-46
2022/04/10 01:41:38;;;;;;;3.77;2.97;;;;;20.60;100643.00;;;;2082075;28;20215;-46
2022/04/10 01:42:38;;;;;;;5.07;3.27;;;;;20.70;100647.00;;;;2089031;28;20208;-47
2022/04/10 01:43:46;;;;;;;4.13;2.87;;;;;20.70;100640.00;;;;2089204;28;20288;-47
2022/04/10 01:44:46;;;;;;;4.00;2.88;;;;;20.70;100634.00;;;;2088304;28;20213;-47
2022/04/10 01:45:46;;;;;;;3.93;2.50;;;;;20.70;100641.00;;;;2087425;28;20212;-46
2022/04/10 01:46:47;;;;;;;4.63;3.17;;;;;20.70;100635.00;;;;2087753;28;20208;-46
2022/04/10 01:47:53;;;;;;;4.60;2.73;;;;;20.60;100637.00;;;;2080758;28;20214;-48
2022/04/10 01:48:54;;;;;;;4.13;3.15;;;;;20.60;100637.00;;;;2080674;28;20774;-47
2022/04/10 01:49:54;;;;;;;5.00;3.17;;;;;20.70;100641.00;;;;2075252;28;24998;-46
2022/04/10 01:50:54;;;;;;;5.30;2.83;;;;;20.70;100643.00;;;;2080853;28;20270;-47
2022/04/10 01:51:55;;;;;;;5.37;3.10;;;;;20.70;100637.00;;;;2080883;28;20222;-46
2022/04/10 01:52:55;;;;;;;4.10;3.17;;;;;20.70;100641.00;;;;2080998;28;20312;-46
2022/04/10 01:53:55;;;;;;;3.57;2.73;;;;;20.60;100642.00;;;;2080732;28;20238;-46
2022/04/10 01:54:56;;;;;;;3.40;2.90;;;;;20.60;100647.00;;;;2080781;28;20235;-47
2022/04/10 01:55:56;;;;;;;4.27;2.70;;;;;20.70;100649.00;;;;2080077;28;20267;-47
2022/04/10 01:56:57;;;;;;;3.97;2.70;;;;;20.60;100641.00;;;;2079373;28;20583;-47
2022/04/10 01:57:57;;;;;;;4.37;2.50;;;;;20.60;100640.00;;;;2080435;28;20225;-47
2022/04/10 01:58:57;;;;;;;3.83;3.10;;;;;20.60;100642.00;;;;2080818;28;20558;-47
2022/04/10 01:59:58;;;;;;;2.83;2.53;;;;;20.60;100642.00;;;;2080718;28;20625;-47
2022/04/10 02:00:58;;;;;;;4.27;2.90;;;;;20.60;100641.00;;;;2080598;28;20297;-47
2022/04/10 02:01:58;;;;;;;3.93;3.17;;;;;20.60;100640.00;;;;2071649;28;20248;-47
2022/04/10 02:02:59;;;;;;;4.40;3.13;;;;;20.60;100643.00;;;;2065153;28;20222;-47
2022/04/10 02:03:59;;;;;;;4.60;2.93;;;;;20.60;100635.00;;;;2086530;28;20597;-46
2022/04/10 02:04:59;;;;;;;5.00;2.90;;;;;20.60;100637.00;;;;2088917;28;20232;-47
2022/04/10 02:06:00;;;;;;;4.23;2.83;;;;;20.60;100639.00;;;;2087845;28;20302;-47
2022/04/10 02:07:00;;;;;;;4.30;2.70;;;;;20.60;100637.00;;;;2088929;28;20213;-46
2022/04/10 02:08:01;;;;;;;5.80;3.23;;;;;20.60;100637.00;;;;2087222;28;20346;-46
2022/04/10 02:09:05;;;;;;;5.23;3.23;;;;;20.60;100638.00;;;;2087676;28;20553;-46
2022/04/10 02:10:06;;;;;;;3.65;2.33;;;;;20.60;100630.00;;;;2088189;28;20216;-46
2022/04/10 02:11:11;;;;;;;3.37;2.53;;;;;20.60;100632.00;;;;2088441;28;20572;-46
2022/04/10 02:12:11;;;;;;;3.08;2.33;;;;;20.60;100631.00;;;;2088351;28;20212;-47
2022/04/10 02:13:12;;;;;;;4.03;3.07;;;;;20.60;100634.00;;;;2088083;28;20419;-47
2022/04/10 02:14:13;;;;;;;3.63;2.65;;;;;20.60;100642.00;;;;2080049;28;20272;-46
2022/04/10 02:15:13;;;;;;;4.73;2.40;;;;;20.60;100640.00;;;;2081899;28;20214;-47
2022/04/10 02:16:15;;;;;;;3.70;3.00;;;;;20.50;100636.00;;;;2087821;28;20482;-46
2022/04/10 02:17:15;;;;;;;6.88;2.58;;;;;20.60;100629.00;;;;2087615;28;20216;-46
2022/04/10 02:18:16;;;;;;;5.43;3.03;;;;;20.60;100634.00;;;;2084829;28;20208;-46
2022/04/10 02:19:16;;;;;;;2.93;2.60;;;;;20.60;100623.00;;;;2083898;28;20213;-46
2022/04/10 02:20:17;;;;;;;4.10;2.90;;;;;20.50;100635.00;;;;2079896;28;20237;-47
2022/04/10 02:21:17;;;;;;;4.03;2.60;;;;;20.50;100625.00;;;;2083987;28;20557;-47
2022/04/10 02:22:18;;;;;;;3.37;2.73;;;;;20.60;100636.00;;;;2080349;28;20870;-47
2022/04/10 02:23:18;;;;;;;3.87;2.67;;;;;20.50;100632.00;;;;2080342;28;20644;-47
2022/04/10 02:24:18;;;;;;;4.13;2.63;;;;;20.50;100634.00;;;;2080379;28;20613;-47
2022/04/10 02:25:19;;;;;;;3.30;2.67;;;;;20.60;100634.00;;;;2078226;28;20217;-45
2022/04/10 02:26:19;;;;;;;4.70;2.57;;;;;20.60;100636.00;;;;2080140;28;20245;-47
2022/04/10 02:27:19;;;;;;;4.10;2.37;;;;;20.60;100634.00;;;;2079909;28;20228;-47
2022/04/10 02:28:20;;;;;;;3.27;2.30;;;;;20.50;100639.00;;;;2079760;28;20213;-47
2022/04/10 02:29:20;;;;;;;3.03;2.00;;;;;20.50;100635.00;;;;2086430;28;20295;-47
2022/04/10 02:30:21;;;;;;;3.97;2.80;;;;;20.50;100640.00;;;;2084514;28;20312;-46
2022/04/10 02:31:21;;;;;;;6.17;3.00;;;;;20.50;100643.00;;;;2087389;28;20213;-46
2022/04/10 02:32:23;;;;;;;3.10;2.60;;;;;20.50;100643.00;;;;2087446;28;20321;-46
2022/04/10 02:33:23;;;;;;;4.40;2.70;;;;;20.50;100644.00;;;;2088067;28;20326;-47
2022/04/10 02:34:24;;;;;;;3.13;2.40;;;;;20.50;100640.00;;;;2088578;28;20584;-47
2022/04/10 02:35:24;;;;;;;3.77;2.50;;;;;20.50;100653.00;;;;2087869;28;20219;-47
2022/04/10 02:36:25;;;;;;;4.00;2.43;;;;;20.50;100657.00;;;;2088899;28;20455;-47
2022/04/10 02:37:25;;;;;;;4.20;2.70;;;;;20.50;100640.00;;;;2088678;28;20693;-46
2022/04/10 02:38:25;;;;;;;4.10;2.30;;;;;20.50;100636.00;;;;2088526;28;20704;-47
2022/04/10 02:39:26;;;;;;;3.30;2.50;;;;;20.50;100635.00;;;;2079874;28;20206;-46
2022/04/10 02:40:26;;;;;;;3.90;2.60;;;;;20.50;100642.00;;;;2080332;28;20693;-46
2022/04/10 02:41:26;;;;;;;3.40;2.37;;;;;20.50;100649.00;;;;2087111;28;20213;-47
2022/04/10 02:42:27;;;;;;;3.53;2.40;;;;;20.50;100643.00;;;;2089055;28;20220;-47
2022/04/10 02:43:28;;;;;;;3.90;2.37;;;;;20.50;100644.00;;;;2087879;28;20197;-46
2022/04/10 02:44:28;;;;;;;2.60;2.20;;;;;20.50;100640.00;;;;2088478;28;20443;-47
2022/04/10 02:45:28;;;;;;;3.40;2.60;;;;;20.50;100652.00;;;;2085289;28;20692;-47
2022/04/10 02:46:29;;;;;;;3.03;2.30;;;;;20.50;100647.00;;;;2080871;28;20627;-46
2022/04/10 02:47:32;;;;;;;4.33;2.33;;;;;20.50;100649.00;;;;2088011;28;20205;-47
2022/04/10 02:48:33;;;;;;;4.60;2.40;;;;;20.50;100646.00;;;;2088701;28;20205;-47
2022/04/10 02:49:33;;;;;;;5.20;2.50;;;;;20.50;100653.00;;;;2088732;28;20296;-47
2022/04/10 02:50:33;;;;;;;2.70;2.13;;;;;20.50;100650.00;;;;2088403;28;20278;-46
2022/04/10 02:51:34;;;;;;;3.17;2.23;;;;;20.50;100652.00;;;;2088878;28;20220;-47
2022/04/10 02:52:34;;;;;;;2.70;2.33;;;;;20.40;100649.00;;;;2083050;28;20674;-46
2022/04/10 02:53:34;;;;;;;3.73;2.50;;;;;20.50;100652.00;;;;2079807;28;20292;-47
2022/04/10 02:54:36;;;;;;;4.07;2.20;;;;;20.40;100648.00;;;;2079824;28;20230;-46
2022/04/10 02:55:36;;;;;;;4.97;2.70;;;;;20.40;100640.00;;;;2079642;28;20237;-46
2022/04/10 02:56:36;;;;;;;3.50;2.17;;;;;20.40;100652.00;;;;2080529;28;20236;-46
2022/04/10 02:57:37;;;;;;;3.53;2.47;;;;;20.40;100658.00;;;;2080034;28;20221;-47
2022/04/10 02:58:38;;;;;;;3.50;2.35;;;;;20.40;100654.00;;;;2080287;28;20210;-47
2022/04/10 02:59:38;;;;;;;3.73;2.50;;;;;20.40;100652.00;;;;2080736;28;20257;-47
2022/04/10 03:00:38;;;;;;;3.30;2.50;;;;;20.50;100650.00;;;;2080283;28;20197;-46
2022/04/10 03:01:39;;;;;;;3.80;2.20;;;;;20.40;100656.00;;;;2079803;28;20209;-47
2022/04/10 03:02:40;;;;;;;2.87;2.17;;;;;20.40;100661.00;;;;2080426;28;20259;-47
2022/04/10 03:03:40;;;;;;;4.10;2.70;;;;;20.40;100663.00;;;;2080596;28;20216;-47
2022/04/10 03:04:40;;;;;;;3.77;2.47;;;;;20.40;100660.00;;;;2080508;28;20502;-47
2022/04/10 03:05:41;;;;;;;3.20;2.23;;;;;20.40;100663.00;;;;2070883;28;20231;-47
2022/04/10 03:06:41;;;;;;;2.60;2.30;;;;;20.40;100664.00;;;;2080279;28;20217;-46
2022/04/10 03:07:41;;;;;;;2.80;2.30;;;;;20.40;100664.00;;;;2080046;28;20225;-45
2022/04/10 03:08:42;;;;;;;2.90;1.97;;;;;20.40;100668.00;;;;2078852;28;20214;-47
2022/04/10 03:09:42;;;;;;;3.70;2.30;;;;;20.40;100671.00;;;;2078807;28;20255;-46
2022/04/10 03:10:42;;;;;;;3.53;2.10;;;;;20.40;100673.00;;;;2079411;28;20225;-46
2022/04/10 03:11:43;;;;;;;3.27;2.23;;;;;20.40;100672.00;;;;2079631;28;20263;-46
2022/04/10 03:12:43;;;;;;;2.50;2.00;;;;;20.40;100663.00;;;;2079345;28;20344;-46
2022/04/10 03:13:44;;;;;;;2.97;2.17;;;;;20.40;100662.00;;;;2078092;28;20717;-46
2022/04/10 03:14:44;;;;;;;2.70;2.00;;;;;20.20;100669.00;;;;2077291;28;20698;-47
2022/04/10 03:15:44;;;;;;;3.10;1.90;;;;;20.40;100666.00;;;;2078595;28;20296;-46
2022/04/10 03:16:45;;;;;;;4.80;2.83;;;;;20.40;100670.00;;;;2079376;28;20222;-46
2022/04/10 03:17:45;;;;;;;3.10;2.07;;;;;20.40;100676.00;;;;2079314;28;20213;-46
2022/04/10 03:18:46;;;;;;;4.27;2.47;;;;;20.40;100673.00;;;;2079539;28;20667;-46
2022/04/10 03:19:46;;;;;;;3.27;2.37;;;;;20.40;100676.00;;;;2079463;28;20703;-47
2022/04/10 03:20:46;;;;;;;2.87;2.30;;;;;20.40;100678.00;;;;2079004;28;20218;-46
2022/04/10 03:21:47;;;;;;;3.00;2.37;;;;;20.40;100669.00;;;;2078334;28;20304;-45
2022/04/10 03:22:47;;;;;;;2.80;2.30;;;;;20.40;100677.00;;;;2078268;28;20687;-45
2022/04/10 03:23:47;;;;;;;3.67;2.10;;;;;20.40;100672.00;;;;2078965;28;20765;-45
2022/04/10 03:24:48;;;;;;;2.80;2.17;;;;;20.40;100675.00;;;;2079187;28;20209;-47
2022/04/10 03:25:48;;;;;;;2.57;1.97;;;;;20.40;100677.00;;;;2078637;28;20229;-47
2022/04/10 03:26:49;;;;;;;3.93;2.10;;;;;20.30;100669.00;;;;2079306;28;20213;-47
2022/04/10 03:27:49;;;;;;;4.17;2.10;;;;;20.40;100675.00;;;;2070937;28;20289;-48
2022/04/10 03:28:50;;;;;;;3.47;2.17;;;;;20.30;100679.00;;;;2071089;28;20445;-47
2022/04/10 03:29:50;;;;;;;3.83;2.57;;;;;20.40;100677.00;;;;2071052;28;20214;-47
2022/04/10 03:30:50;;;;;;;3.93;2.17;;;;;20.40;100679.00;;;;2070984;28;20214;-45
2022/04/10 03:31:51;;;;;;;2.93;2.30;;;;;20.40;100677.00;;;;2071323;28;20237;-45
2022/04/10 03:32:52;;;;;;;3.40;2.00;;;;;20.40;100675.00;;;;2071359;28;20582;-46
2022/04/10 03:33:52;;;;;;;4.17;2.57;;;;;20.40;100680.00;;;;2086554;28;20514;-47
2022/04/10 03:34:52;;;;;;;4.50;2.37;;;;;20.40;100673.00;;;;2079174;28;20210;-46
2022/04/10 03:35:53;;;;;;;3.93;2.50;;;;;20.30;100673.00;;;;2078480;28;20216;-45
2022/04/10 03:36:54;;;;;;;4.73;2.30;;;;;20.30;100676.00;;;;2079165;28;20237;-45
2022/04/10 03:37:54;;;;;;;4.43;2.33;;;;;20.40;100672.00;;;;2074937;28;20833;-44
2022/04/10 03:38:54;;;;;;;3.33;1.80;;;;;20.30;100683.00;;;;2071208;28;20757;-46
2022/04/10 03:39:55;;;;;;;3.70;2.40;;;;;20.30;100682.00;;;;2077132;28;20210;-49
2022/04/10 03:40:55;;;;;;;3.70;2.47;;;;;20.30;100681.00;;;;2079011;28;20245;-44
2022/04/10 03:41:56;;;;;;;3.70;2.23;;;;;20.30;100681.00;;;;2079226;28;20209;-46
2022/04/10 03:42:56;;;;;;;3.20;2.50;;;;;20.30;100680.00;;;;2079034;28;20260;-45
2022/04/10 03:43:56;;;;;;;4.73;2.50;;;;;20.30;100677.00;;;;2079076;28;20237;-45
2022/04/10 03:44:57;;;;;;;3.57;2.10;;;;;20.30;100685.00;;;;2078850;28;20268;-47
2022/04/10 03:45:58;;;;;;;4.60;2.20;;;;;20.30;100678.00;;;;2078165;28;20212;-46
2022/04/10 03:46:58;;;;;;;4.40;2.40;;;;;20.30;100678.00;;;;2078959;28;20221;-46
2022/04/10 03:47:58;;;;;;;4.13;2.20;;;;;20.30;100679.00;;;;2079152;28;20211;-45
2022/04/10 03:48:59;;;;;;;4.27;2.20;;;;;20.30;100675.00;;;;2078971;28;20213;-45
2022/04/10 03:49:59;;;;;;;3.00;2.20;;;;;20.30;100679.00;;;;2080058;28;20243;-47
2022/04/10 03:50:59;;;;;;;4.30;2.60;;;;;20.30;100683.00;;;;2071810;28;20218;-46
2022/04/10 03:52:00;;;;;;;2.73;2.30;;;;;20.30;100680.00;;;;2072129;28;20219;-47
2022/04/10 03:53:01;;;;;;;4.83;2.53;;;;;20.30;100686.00;;;;2072011;28;20593;-46
2022/04/10 03:54:01;;;;;;;3.20;2.13;;;;;20.30;100687.00;;;;2071875;28;20631;-47
2022/04/10 03:55:01;;;;;;;2.87;2.43;;;;;20.30;100686.00;;;;2075923;28;20534;-46
2022/04/10 03:56:02;;;;;;;4.40;2.20;;;;;20.30;100687.00;;;;2084798;28;20220;-46
2022/04/10 03:57:03;;;;;;;3.30;2.30;;;;;20.30;100690.00;;;;2082638;28;20255;-46
2022/04/10 03:58:03;;;;;;;3.15;2.33;;;;;20.30;100697.00;;;;2076485;28;20222;-46
2022/04/10 03:59:04;;;;;;;3.60;2.53;;;;;20.30;100692.00;;;;2071679;28;20241;-46
2022/04/10 04:00:05;;;;;;;4.30;2.27;;;;;20.30;100688.00;;;;2071853;28;20738;-47
2022/04/10 04:01:05;;;;;;;2.70;2.17;;;;;20.20;100689.00;;;;2071954;28;20213;-47
2022/04/10 04:02:06;;;;;;;3.80;2.33;;;;;20.20;100692.00;;;;2071869;28;20508;-46
2022/04/10 04:03:06;;;;;;;3.20;2.33;;;;;20.20;100692.00;;;;2071097;28;20233;-46
2022/04/10 04:04:06;;;;;;;2.60;2.00;;;;;20.30;100698.00;;;;2071384;28;20202;-47
2022/04/10 04:05:07;;;;;;;2.50;2.10;;;;;20.20;100692.00;;;;2071297;28;20203;-47
2022/04/10 04:06:08;;;;;;;3.65;2.20;;;;;20.20;100696.00;;;;2070209;28;20214;-47
2022/04/10 04:07:08;;;;;;;3.33;2.30;;;;;20.20;100700.00;;;;2072454;28;20995;-47
2022/04/10 04:08:09;;;;;;;4.53;2.53;;;;;20.20;100710.00;;;;2077037;28;20198;-46
2022/04/10 04:09:09;;;;;;;3.33;2.20;;;;;20.20;100700.00;;;;2070688;28;20221;-45
2022/04/10 04:10:10;;;;;;;4.63;2.37;;;;;20.20;100706.00;;;;2070963;28;20321;-45
2022/04/10 04:11:10;;;;;;;2.77;1.90;;;;;20.20;100710.00;;;;2070652;28;20225;-45
2022/04/10 04:12:10;;;;;;;3.17;2.70;;;;;20.20;100707.00;;;;2070810;28;20210;-46
2022/04/10 04:13:11;;;;;;;4.47;2.57;;;;;20.20;100711.00;;;;2070728;28;20226;-46
2022/04/10 04:14:12;;;;;;;4.50;2.63;;;;;20.20;100697.00;;;;2069730;28;20207;-46
2022/04/10 04:15:12;;;;;;;3.67;2.17;;;;;20.20;100703.00;;;;2070046;28;20214;-46
2022/04/10 04:16:12;;;;;;;4.60;2.40;;;;;20.20;100712.00;;;;2070186;28;20218;-45
2022/04/10 04:17:13;;;;;;;3.17;2.10;;;;;20.20;100700.00;;;;2071030;28;20218;-46
2022/04/10 04:18:13;;;;;;;2.93;2.00;;;;;20.20;100710.00;;;;2073784;28;20277;-46
2022/04/10 04:19:13;;;;;;;2.70;2.20;;;;;20.20;100705.00;;;;2073747;28;20245;-46
2022/04/10 04:20:14;;;;;;;3.70;2.30;;;;;20.20;100710.00;;;;2072486;28;20276;-46
2022/04/10 04:21:14;;;;;;;3.50;2.70;;;;;20.20;100713.00;;;;2070579;28;20214;-46
2022/04/10 04:22:14;;;;;;;2.70;2.10;;;;;20.20;100710.00;;;;2070758;28;20238;-46
2022/04/10 04:23:17;;;;;;;4.10;2.17;;;;;20.20;100715.00;;;;2070945;28;20206;-46
2022/04/10 04:24:17;;;;;;;3.72;2.33;;;;;20.20;100711.00;;;;2070675;28;20222;-47
2022/04/10 04:25:18;;;;;;;3.40;2.53;;;;;20.20;100711.00;;;;2069812;28;20272;-47
2022/04/10 04:26:18;;;;;;;4.77;2.30;;;;;20.20;100717.00;;;;2069293;28;20214;-46
2022/04/10 04:27:18;;;;;;;3.30;2.27;;;;;20.20;100719.00;;;;2069929;28;20245;-45
2022/04/10 04:28:19;;;;;;;5.27;2.70;;;;;20.20;100712.00;;;;2069812;28;20245;-45
2022/04/10 04:29:20;;;;;;;3.90;2.40;;;;;20.20;100715.00;;;;2070080;28;20957;-47
2022/04/10 04:30:20;;;;;;;3.60;2.67;;;;;20.10;100720.00;;;;2070733;28;20457;-47
2022/04/10 04:31:20;;;;;;;3.67;2.43;;;;;20.20;100715.00;;;;2069920;28;20225;-47
2022/04/10 04:32:21;;;;;;;4.47;2.67;;;;;20.20;100722.00;;;;2069522;28;20214;-46
2022/04/10 04:33:21;;;;;;;2.80;2.10;;;;;20.20;100720.00;;;;2070627;28;20226;-47
2022/04/10 04:34:22;;;;;;;4.00;2.50;;;;;20.20;100718.00;;;;2075089;28;20214;-46
2022/04/10 04:35:23;;;;;;;3.00;2.07;;;;;20.20;100722.00;;;;2078361;28;20215;-47
2022/04/10 04:36:23;;;;;;;3.88;2.40;;;;;20.20;100725.00;;;;2071470;28;20221;-47
2022/04/10 04:37:23;;;;;;;3.30;2.50;;;;;20.20;100732.00;;;;2078222;28;20225;-46
2022/04/10 04:38:24;;;;;;;3.00;1.80;;;;;20.10;100726.00;;;;2077460;28;20216;-46
2022/04/10 04:39:24;;;;;;;4.67;2.60;;;;;20.20;100725.00;;;;2078728;28;20210;-47
2022/04/10 04:40:24;;;;;;;4.70;2.73;;;;;20.20;100729.00;;;;2078448;28;20208;-47
2022/04/10 04:41:25;;;;;;;3.70;2.20;;;;;20.10;100734.00;;;;2070124;28;20226;-47
2022/04/10 04:42:25;;;;;;;3.17;2.20;;;;;20.10;100733.00;;;;2070705;28;20285;-47
2022/04/10 04:43:25;;;;;;;3.50;2.50;;;;;20.10;100725.00;;;;2070619;28;20217;-47
2022/04/10 04:44:26;;;;;;;3.77;2.10;;;;;20.20;100728.00;;;;2070672;28;20214;-47
2022/04/10 04:45:26;;;;;;;3.37;2.33;;;;;20.20;100741.00;;;;2069778;28;20327;-47
2022/04/10 04:46:26;;;;;;;6.23;2.77;;;;;20.20;100733.00;;;;2070206;28;20244;-47
2022/04/10 04:47:27;;;;;;;2.90;2.37;;;;;20.20;100733.00;;;;2070368;28;20222;-46
2022/04/10 04:48:27;;;;;;;8.40;3.30;;;;;20.20;100739.00;;;;2070610;28;20214;-46
2022/04/10 04:49:28;;;;;;;4.23;2.57;;;;;20.20;100739.00;;;;2070656;28;20562;-47
2022/04/10 04:50:29;;;;;;;4.83;2.63;;;;;20.20;100738.00;;;;2086749;28;20843;-46
2022/04/10 04:51:29;;;;;;;2.70;2.30;;;;;20.20;100746.00;;;;2078812;28;20213;-46
2022/04/10 04:52:29;;;;;;;4.20;3.47;;;;;20.30;100752.00;;;;2078671;28;20455;-46
2022/04/10 04:53:30;;;;;;;6.90;4.40;;;;;20.20;100745.00;;;;2078267;28;20694;-46
2022/04/10 04:54:30;;;;;;;6.33;4.33;;;;;20.30;100745.00;;;;2078610;28;20749;-46
2022/04/10 04:55:30;;;;;;;6.67;4.83;;;;;20.20;100743.00;;;;2078122;28;20697;-46
2022/04/10 04:56:31;;;;;;;7.10;5.60;;;;;20.20;100744.00;;;;2078696;28;20259;-46
2022/04/10 04:57:31;;;;;;;9.13;6.23;;;;;20.20;100743.00;;;;2078258;28;20332;-46
2022/04/10 04:58:32;;;;;;;8.93;6.70;;;;;20.20;100745.00;;;;2078542;28;20218;-46
2022/04/10 04:59:32;;;;;;;8.93;6.40;;;;;20.20;100741.00;;;;2078318;28;20209;-48